createdAt,value
2022-10-31T00:01:09.861Z,14.40
2022-10-31T00:03:36.384Z,14.26
2022-10-31T00:06:02.997Z,14.41
2022-10-31T00:08:29.662Z,14.39
2022-10-31T00:10:56.280Z,14.43
2022-10-31T00:15:54.338Z,14.37
2022-10-31T00:18:20.899Z,14.33
2022-10-31T00:20:47.428Z,14.32
2022-10-31T00:23:15.140Z,14.24
2022-10-31T00:25:41.769Z,14.23
2022-10-31T00:28:12.017Z,14.23
2022-10-31T00:30:38.710Z,14.14
2022-10-31T00:33:06.245Z,14.16
2022-10-31T00:35:33.254Z,14.04
2022-10-31T00:38:00.404Z,14.02
2022-10-31T00:40:27.550Z,13.99
2022-10-31T00:42:54.234Z,14.01
2022-10-31T00:45:21.019Z,13.88
2022-10-31T00:47:47.922Z,13.86
2022-10-31T00:50:14.809Z,13.94
2022-10-31T00:52:41.385Z,13.91
2022-10-31T00:55:08.083Z,14.02
2022-10-31T00:57:34.632Z,13.81
2022-10-31T01:00:05.081Z,13.95
2022-10-31T01:02:31.756Z,13.73
2022-10-31T01:04:58.414Z,13.72
2022-10-31T01:07:24.928Z,13.66
2022-10-31T01:09:51.798Z,13.73
2022-10-31T01:12:19.735Z,13.77
2022-10-31T01:14:46.732Z,13.69
2022-10-31T01:17:14.480Z,13.57
2022-10-31T01:19:41.145Z,13.62
2022-10-31T01:22:07.793Z,13.61
2022-10-31T01:24:34.816Z,13.58
2022-10-31T01:27:02.404Z,13.59
2022-10-31T01:29:32.154Z,13.63
2022-10-31T01:31:59.021Z,13.52
2022-10-31T01:34:25.609Z,13.27
2022-10-31T01:36:52.368Z,13.41
2022-10-31T01:39:20.268Z,13.45
2022-10-31T01:41:50.058Z,13.41
2022-10-31T01:44:16.714Z,13.40
2022-10-31T01:46:54.824Z,13.29
2022-10-31T01:49:52.376Z,13.35
2022-10-31T01:52:27.486Z,13.15
2022-10-31T01:55:08.979Z,13.21
2022-10-31T01:57:38.730Z,13.27
2022-10-31T02:00:10.403Z,13.31
2022-10-31T02:02:40.199Z,13.24
2022-10-31T02:05:10.633Z,13.27
2022-10-31T02:07:43.184Z,13.14
2022-10-31T02:10:09.865Z,13.09
2022-10-31T02:12:39.247Z,13.16
2022-10-31T02:15:06.879Z,13.06
2022-10-31T02:17:34.148Z,13.07
2022-10-31T02:20:19.860Z,13.15
2022-10-31T02:22:58.721Z,13.35
2022-10-31T02:26:06.140Z,13.25
2022-10-31T02:28:51.655Z,13.26
2022-10-31T02:31:26.092Z,13.02
2022-10-31T02:34:29.890Z,13.14
2022-10-31T02:37:08.992Z,13.05
2022-10-31T02:39:46.417Z,13.00
2022-10-31T02:43:07.106Z,13.08
2022-10-31T02:45:38.911Z,13.18
2022-10-31T02:48:15.825Z,13.09
2022-10-31T02:50:47.530Z,13.18
2022-10-31T02:53:17.268Z,12.88
2022-10-31T02:55:47.674Z,12.88
2022-10-31T03:00:52.364Z,13.16
2022-10-31T03:03:40.823Z,13.06
2022-10-31T03:06:15.478Z,12.99
2022-10-31T03:08:56.086Z,12.97
2022-10-31T03:11:30.366Z,13.18
2022-10-31T03:14:12.271Z,13.25
2022-10-31T03:16:50.803Z,13.15
2022-10-31T03:19:40.631Z,13.21
2022-10-31T03:22:26.722Z,13.08
2022-10-31T03:24:55.849Z,12.98
2022-10-31T03:27:26.831Z,12.99
2022-10-31T03:29:58.097Z,13.14
2022-10-31T03:32:39.323Z,13.07
2022-10-31T03:35:09.994Z,13.20
2022-10-31T03:37:40.795Z,13.24
2022-10-31T03:40:13.681Z,13.04
2022-10-31T03:42:45.219Z,12.98
2022-10-31T03:45:17.776Z,13.00
2022-10-31T03:47:45.228Z,13.01
2022-10-31T03:50:16.566Z,12.99
2022-10-31T03:52:58.125Z,12.97
2022-10-31T03:55:33.765Z,12.90
2022-10-31T03:58:09.079Z,12.96
2022-10-31T04:00:39.805Z,12.85
2022-10-31T04:03:11.358Z,12.81
2022-10-31T04:05:43.660Z,12.80
2022-10-31T04:08:15.972Z,12.65
2022-10-31T04:10:47.986Z,12.51
2022-10-31T04:13:21.570Z,12.61
2022-10-31T04:15:57.443Z,12.54
2022-10-31T04:18:26.811Z,12.64
2022-10-31T04:21:06.911Z,12.56
2022-10-31T04:23:35.280Z,12.34
2022-10-31T04:26:12.672Z,12.36
2022-10-31T04:28:39.274Z,12.18
2022-10-31T04:31:06.094Z,11.97
2022-10-31T04:33:36.408Z,12.11
2022-10-31T04:36:03.297Z,12.17
2022-10-31T04:38:30.241Z,12.17
2022-10-31T04:40:56.891Z,12.05
2022-10-31T04:43:46.594Z,12.17
2022-10-31T04:46:13.951Z,12.20
2022-10-31T04:48:40.613Z,12.26
2022-10-31T04:51:07.922Z,12.25
2022-10-31T04:53:34.605Z,12.25
2022-10-31T04:56:30.609Z,12.25
2022-10-31T04:59:00.118Z,12.27
2022-10-31T05:01:29.943Z,12.17
2022-10-31T05:03:58.730Z,12.19
2022-10-31T05:06:25.305Z,12.26
2022-10-31T05:08:52.008Z,12.38
2022-10-31T05:11:18.568Z,12.38
2022-10-31T05:13:45.306Z,12.36
2022-10-31T05:16:11.874Z,12.30
2022-10-31T05:19:16.903Z,12.27
2022-10-31T05:22:02.115Z,12.18
2022-10-31T05:24:29.446Z,12.06
2022-10-31T05:26:56.015Z,12.01
2022-10-31T05:29:22.831Z,11.91
2022-10-31T05:31:49.438Z,11.99
2022-10-31T05:34:35.958Z,11.87
2022-10-31T05:37:21.192Z,11.70
2022-10-31T05:39:47.865Z,11.59
2022-10-31T05:42:16.970Z,11.58
2022-10-31T05:44:43.609Z,11.53
2022-10-31T05:47:10.174Z,11.51
2022-10-31T05:49:55.538Z,11.54
2022-10-31T05:52:40.862Z,11.60
2022-10-31T05:55:17.686Z,11.67
2022-10-31T05:57:59.511Z,11.72
2022-10-31T06:00:27.623Z,11.67
2022-10-31T06:03:05.814Z,11.76
2022-10-31T06:05:41.894Z,11.65
2022-10-31T06:08:08.592Z,11.48
2022-10-31T06:10:36.043Z,11.56
2022-10-31T06:13:02.660Z,11.59
2022-10-31T06:15:43.705Z,11.51
2022-10-31T06:18:11.422Z,11.42
2022-10-31T06:20:50.072Z,11.40
2022-10-31T06:23:16.841Z,11.46
2022-10-31T06:25:49.700Z,11.51
2022-10-31T06:28:17.014Z,11.60
2022-10-31T06:31:07.282Z,11.54
2022-10-31T06:33:34.899Z,11.66
2022-10-31T06:36:02.888Z,11.65
2022-10-31T06:38:30.037Z,11.62
2022-10-31T06:40:57.807Z,11.57
2022-10-31T06:43:27.844Z,11.57
2022-10-31T06:46:12.985Z,11.63
2022-10-31T06:49:02.448Z,11.68
2022-10-31T06:51:38.017Z,11.66
2022-10-31T06:54:04.813Z,11.49
2022-10-31T06:56:31.640Z,11.54
2022-10-31T06:58:59.214Z,11.57
2022-10-31T07:01:44.585Z,11.70
2022-10-31T07:04:12.437Z,11.61
2022-10-31T07:06:39.138Z,11.74
2022-10-31T07:09:05.884Z,11.82
2022-10-31T07:11:32.448Z,11.91
2022-10-31T07:13:59.550Z,11.95
2022-10-31T07:16:26.288Z,11.89
2022-10-31T07:18:53.517Z,11.90
2022-10-31T07:21:20.819Z,12.02
2022-10-31T07:23:50.842Z,12.17
2022-10-31T07:26:43.427Z,12.13
2022-10-31T07:29:10.852Z,12.26
2022-10-31T07:31:37.864Z,12.18
2022-10-31T07:34:11.735Z,12.38
2022-10-31T07:37:04.178Z,12.57
2022-10-31T07:39:30.767Z,12.67
2022-10-31T07:41:59.738Z,12.70
2022-10-31T07:44:26.929Z,12.73
2022-10-31T07:47:12.274Z,12.82
2022-10-31T07:50:05.381Z,12.97
2022-10-31T07:53:03.078Z,13.09
2022-10-31T07:55:48.033Z,13.19
2022-10-31T07:58:16.893Z,13.22
2022-10-31T08:00:45.915Z,13.15
2022-10-31T08:03:18.917Z,13.19
2022-10-31T08:06:04.658Z,13.30
2022-10-31T08:08:57.250Z,13.45
2022-10-31T08:11:26.248Z,13.40
2022-10-31T08:13:53.025Z,13.49
2022-10-31T08:16:20.159Z,13.61
2022-10-31T08:19:07.049Z,13.78
2022-10-31T08:21:38.196Z,13.83
2022-10-31T08:24:06.169Z,13.74
2022-10-31T08:26:33.666Z,13.62
2022-10-31T08:29:00.709Z,13.81
2022-10-31T08:31:44.332Z,13.94
2022-10-31T08:34:29.392Z,13.81
2022-10-31T08:37:19.638Z,13.84
2022-10-31T08:39:48.920Z,13.92
2022-10-31T08:42:15.570Z,13.89
2022-10-31T08:44:42.232Z,13.82
2022-10-31T08:47:08.958Z,13.95
2022-10-31T08:49:38.442Z,14.01
2022-10-31T08:52:05.131Z,14.04
2022-10-31T08:54:36.556Z,14.04
2022-10-31T08:57:21.961Z,14.10
2022-10-31T08:59:48.728Z,14.06
2022-10-31T09:02:24.503Z,14.40
2022-10-31T09:04:55.682Z,14.45
2022-10-31T09:07:22.323Z,14.51
2022-10-31T09:09:48.904Z,14.52
2022-10-31T09:12:15.486Z,14.75
2022-10-31T09:14:48.087Z,14.75
2022-10-31T09:17:23.712Z,14.91
2022-10-31T09:20:16.549Z,15.01
2022-10-31T09:22:47.717Z,15.00
2022-10-31T09:25:15.406Z,15.19
2022-10-31T09:28:39.944Z,15.24
2022-10-31T09:31:14.217Z,15.34
2022-10-31T09:33:49.596Z,15.62
2022-10-31T09:36:34.714Z,15.67
2022-10-31T09:39:03.688Z,15.76
2022-10-31T09:41:59.525Z,15.69
2022-10-31T09:44:36.658Z,15.84
2022-10-31T09:47:26.468Z,15.83
2022-10-31T09:50:19.866Z,16.04
2022-10-31T09:53:02.819Z,15.98
2022-10-31T09:55:39.903Z,16.02
2022-10-31T09:58:15.544Z,16.28
2022-10-31T10:00:44.403Z,16.12
2022-10-31T10:03:23.205Z,16.18
2022-10-31T10:06:25.430Z,16.09
2022-10-31T10:09:27.330Z,16.11
2022-10-31T10:12:49.414Z,16.20
2022-10-31T10:15:41.245Z,15.97
2022-10-31T10:18:10.858Z,16.33
2022-10-31T10:21:04.966Z,16.40
2022-10-31T10:24:03.992Z,16.47
2022-10-31T10:26:37.684Z,16.61
2022-10-31T10:29:28.175Z,16.94
2022-10-31T10:31:56.472Z,16.88
2022-10-31T10:34:48.648Z,16.98
2022-10-31T10:37:26.815Z,17.09
2022-10-31T10:40:02.209Z,16.91
2022-10-31T10:42:47.398Z,17.02
2022-10-31T10:45:37.976Z,17.14
2022-10-31T10:48:20.957Z,17.13
2022-10-31T10:50:51.362Z,17.52
2022-10-31T10:53:49.926Z,17.70
2022-10-31T10:56:35.958Z,17.94
2022-10-31T10:59:04.051Z,17.65
2022-10-31T11:01:30.901Z,17.88
2022-10-31T11:03:57.524Z,17.97
2022-10-31T11:06:28.439Z,18.03
2022-10-31T11:08:55.098Z,18.35
2022-10-31T11:11:28.869Z,18.45
2022-10-31T11:14:03.888Z,18.32
2022-10-31T11:16:36.784Z,18.36
2022-10-31T11:19:18.718Z,18.29
2022-10-31T11:21:52.628Z,18.18
2022-10-31T11:24:22.256Z,18.60
2022-10-31T11:26:50.485Z,18.94
2022-10-31T11:29:27.008Z,19.27
2022-10-31T11:31:56.928Z,19.24
2022-10-31T11:34:27.971Z,19.11
2022-10-31T11:36:55.471Z,19.26
2022-10-31T11:39:24.991Z,19.33
2022-10-31T11:41:53.070Z,19.45
2022-10-31T11:44:29.007Z,19.35
2022-10-31T11:46:59.758Z,19.58
2022-10-31T11:49:40.007Z,19.23
2022-10-31T11:52:13.570Z,19.41
2022-10-31T11:54:56.779Z,19.62
2022-10-31T11:57:29.355Z,19.39
2022-10-31T11:59:58.770Z,19.62
2022-10-31T12:02:25.414Z,19.70
2022-10-31T12:04:56.359Z,19.57
2022-10-31T12:07:24.275Z,19.73
2022-10-31T12:09:51.135Z,19.84
2022-10-31T12:12:39.496Z,19.90
2022-10-31T12:15:28.477Z,19.54
2022-10-31T12:18:32.713Z,19.59
2022-10-31T12:21:41.141Z,19.95
2022-10-31T12:24:29.741Z,19.71
2022-10-31T12:27:04.777Z,20.00
2022-10-31T12:29:43.241Z,20.01
2022-10-31T12:32:25.866Z,20.34
2022-10-31T12:34:52.366Z,20.14
2022-10-31T12:37:49.946Z,20.18
2022-10-31T12:40:25.840Z,20.35
2022-10-31T12:43:12.109Z,20.28
2022-10-31T12:45:54.182Z,20.23
2022-10-31T12:49:02.620Z,20.26
2022-10-31T12:51:45.663Z,19.83
2022-10-31T12:54:12.298Z,19.78
2022-10-31T12:56:42.516Z,19.99
2022-10-31T12:59:27.993Z,20.03
2022-10-31T13:02:11.708Z,19.96
2022-10-31T13:04:46.217Z,19.68
2022-10-31T13:07:23.306Z,19.86
2022-10-31T13:10:04.454Z,20.17
2022-10-31T13:12:41.058Z,20.06
2022-10-31T13:15:30.895Z,20.10
2022-10-31T13:18:02.117Z,19.99
2022-10-31T13:20:35.981Z,19.80
2022-10-31T13:23:51.872Z,19.87
2022-10-31T13:26:30.164Z,19.92
2022-10-31T13:29:32.663Z,19.98
2022-10-31T13:32:05.138Z,19.96
2022-10-31T13:34:39.561Z,19.96
2022-10-31T13:37:12.210Z,19.93
2022-10-31T13:40:05.673Z,20.07
2022-10-31T13:42:54.350Z,19.76
2022-10-31T13:45:23.440Z,19.79
2022-10-31T13:48:16.182Z,19.93
2022-10-31T13:50:55.708Z,19.99
2022-10-31T13:53:24.056Z,19.91
2022-10-31T13:56:03.854Z,19.92
2022-10-31T13:58:32.835Z,19.93
2022-10-31T14:01:21.685Z,20.07
2022-10-31T14:04:38.298Z,19.98
2022-10-31T14:07:26.388Z,19.72
2022-10-31T14:10:07.771Z,19.75
2022-10-31T14:12:47.593Z,19.90
2022-10-31T14:15:59.856Z,20.02
2022-10-31T14:19:07.620Z,19.94
2022-10-31T14:24:58.466Z,19.46
2022-10-31T14:28:00.707Z,19.92
2022-10-31T14:30:48.800Z,19.82
2022-10-31T14:33:21.221Z,19.48
2022-10-31T14:36:18.912Z,19.83
2022-10-31T14:39:53.083Z,19.64
2022-10-31T14:43:24.903Z,19.82
2022-10-31T14:46:10.775Z,19.50
2022-10-31T14:52:10.121Z,19.60
2022-10-31T14:54:42.475Z,19.63
2022-10-31T14:57:25.737Z,19.78
2022-10-31T15:00:09.062Z,19.49
2022-10-31T15:03:15.474Z,19.41
2022-10-31T15:06:17.827Z,19.31
2022-10-31T15:12:43.068Z,19.51
2022-10-31T15:15:59.434Z,19.39
2022-10-31T15:18:39.477Z,19.31
2022-10-31T15:21:36.093Z,19.34
2022-10-31T15:24:03.832Z,19.36
2022-10-31T15:26:41.547Z,19.26
2022-10-31T15:29:23.566Z,19.05
2022-10-31T15:35:26.706Z,19.06
2022-10-31T15:38:29.748Z,19.11
2022-10-31T15:45:15.482Z,18.86
2022-10-31T15:48:41.377Z,19.01
2022-10-31T15:51:30.223Z,18.49
2022-10-31T15:54:22.600Z,19.05
2022-10-31T16:00:02.323Z,18.77
2022-10-31T16:02:59.713Z,19.02
2022-10-31T16:09:24.461Z,18.85
2022-10-31T16:12:01.929Z,18.74
2022-10-31T16:20:09.687Z,18.55
2022-10-31T16:23:12.923Z,18.69
2022-10-31T16:25:46.546Z,18.53
2022-10-31T16:28:48.802Z,17.92
2022-10-31T16:32:14.885Z,18.49
2022-10-31T16:47:24.604Z,17.66
2022-10-31T16:58:27.739Z,17.64
2022-10-31T16:59:20.300Z,17.62
2022-10-31T17:08:33.582Z,17.72
2022-10-31T17:11:00.332Z,17.85
2022-10-31T17:13:30.248Z,17.99
2022-10-31T17:16:00.013Z,17.98
2022-10-31T17:18:31.334Z,17.87
2022-10-31T17:21:27.826Z,17.95
2022-10-31T17:23:56.731Z,17.96
2022-10-31T17:26:23.470Z,18.26
2022-10-31T17:28:49.982Z,18.19
2022-10-31T17:31:31.667Z,18.17
2022-10-31T17:34:02.304Z,18.11
2022-10-31T17:36:30.720Z,18.10
2022-10-31T17:38:57.550Z,17.87
2022-10-31T17:41:24.421Z,18.10
2022-10-31T17:43:56.045Z,17.98
2022-10-31T17:46:23.176Z,17.68
2022-10-31T17:48:50.064Z,17.96
2022-10-31T17:51:17.097Z,18.12
2022-10-31T17:53:43.753Z,18.22
2022-10-31T17:56:10.727Z,18.20
2022-10-31T17:58:38.249Z,18.11
2022-10-31T18:01:13.191Z,18.17
2022-10-31T18:03:40.575Z,18.13
2022-10-31T18:06:08.599Z,18.08
2022-10-31T18:08:37.598Z,18.09
2022-10-31T18:11:09.646Z,18.13
2022-10-31T18:13:37.161Z,18.21
2022-10-31T18:16:10.220Z,18.12
2022-10-31T18:18:37.036Z,17.85
2022-10-31T18:21:04.131Z,17.81
2022-10-31T18:23:31.222Z,17.75
2022-10-31T18:25:58.240Z,17.77
2022-10-31T18:28:25.277Z,17.88
2022-10-31T18:30:56.671Z,17.92
2022-10-31T18:36:23.133Z,17.33
2022-10-31T18:38:55.150Z,17.44
2022-10-31T18:41:29.422Z,17.57
2022-10-31T18:44:00.086Z,17.38
2022-10-31T18:46:37.041Z,17.31
2022-10-31T18:49:12.554Z,17.27
2022-10-31T18:52:00.683Z,17.33
2022-10-31T18:54:28.476Z,17.37
2022-10-31T18:57:01.409Z,17.09
2022-10-31T18:59:35.562Z,17.28
2022-10-31T19:02:16.583Z,17.41
2022-10-31T19:04:43.724Z,17.49
2022-10-31T19:07:10.312Z,17.34
2022-10-31T19:12:34.655Z,17.27
2022-10-31T19:15:19.238Z,17.44
2022-10-31T19:17:52.865Z,17.26
2022-10-31T19:20:25.933Z,17.41
2022-10-31T19:26:34.722Z,17.11
2022-10-31T19:29:07.432Z,17.54
2022-10-31T19:31:34.007Z,17.38
2022-10-31T19:34:00.633Z,17.37
2022-10-31T19:36:27.662Z,17.34
2022-10-31T19:38:54.265Z,17.19
2022-10-31T19:41:30.657Z,17.13
2022-10-31T19:43:59.680Z,17.32
2022-10-31T19:46:52.787Z,17.30
2022-10-31T19:49:13.330Z,17.43
2022-10-31T19:51:39.939Z,17.38
2022-10-31T19:54:07.772Z,17.30
2022-10-31T19:56:34.679Z,17.34
2022-10-31T19:59:02.655Z,17.41
2022-10-31T20:01:29.639Z,17.34
2022-10-31T20:03:56.225Z,17.22
2022-10-31T20:06:34.854Z,17.29
2022-10-31T20:09:03.858Z,17.47
2022-10-31T20:11:43.207Z,17.40
2022-10-31T20:14:14.950Z,17.29
2022-10-31T20:16:42.440Z,17.30
2022-10-31T20:19:09.492Z,17.42
2022-10-31T20:21:38.540Z,17.31
2022-10-31T20:24:07.932Z,17.30
2022-10-31T20:26:35.552Z,17.35
2022-10-31T20:29:03.241Z,17.38
2022-10-31T20:31:32.873Z,17.32
2022-10-31T20:33:59.909Z,17.14
2022-10-31T20:36:28.654Z,17.16
2022-10-31T20:38:55.553Z,17.17
2022-10-31T20:41:22.131Z,17.26
2022-10-31T20:43:48.976Z,17.08
2022-10-31T20:46:18.713Z,16.97
2022-10-31T20:48:45.935Z,16.91
2022-10-31T20:51:25.154Z,16.95
2022-10-31T20:53:53.303Z,16.98
2022-10-31T20:56:22.546Z,16.89
2022-10-31T20:58:50.078Z,16.88
2022-10-31T21:01:22.738Z,16.73
2022-10-31T21:03:50.702Z,16.76
2022-10-31T21:06:19.018Z,16.76
2022-10-31T21:08:46.066Z,16.84
2022-10-31T21:11:18.396Z,16.70
2022-10-31T21:13:47.067Z,16.61
2022-10-31T21:16:17.042Z,16.68
2022-10-31T21:18:45.046Z,16.63
2022-10-31T21:21:20.136Z,16.76
2022-10-31T21:26:52.146Z,16.51
2022-10-31T21:29:20.596Z,16.52
2022-10-31T21:31:48.130Z,16.36
2022-10-31T21:34:15.089Z,16.39
2022-10-31T21:36:41.817Z,16.38
2022-10-31T21:39:09.425Z,16.47
2022-10-31T21:41:36.235Z,16.60
2022-10-31T21:44:02.797Z,16.66
2022-10-31T21:46:31.970Z,16.73
2022-10-31T21:49:07.162Z,16.61
2022-10-31T21:51:36.323Z,16.57
2022-10-31T21:54:22.064Z,16.61
2022-10-31T21:56:49.368Z,16.76
2022-10-31T21:59:16.063Z,16.76
2022-10-31T22:01:42.820Z,16.69
2022-10-31T22:04:09.798Z,16.66
2022-10-31T22:06:37.150Z,16.71
2022-10-31T22:09:06.185Z,16.62
2022-10-31T22:11:34.349Z,16.67
2022-10-31T22:14:01.918Z,16.69
2022-10-31T22:16:30.540Z,16.60
2022-10-31T22:18:59.899Z,16.58
2022-10-31T22:21:28.029Z,16.46
2022-10-31T22:24:02.043Z,16.34
2022-10-31T22:26:33.799Z,16.52
2022-10-31T22:29:03.036Z,16.64
2022-10-31T22:31:30.978Z,16.51
2022-10-31T22:33:58.528Z,16.53
2022-10-31T22:36:27.597Z,16.49
2022-10-31T22:38:54.346Z,16.41
2022-10-31T22:41:29.403Z,16.28
2022-10-31T22:43:57.194Z,16.37
2022-10-31T22:46:29.667Z,16.28
2022-10-31T22:49:02.230Z,16.37
2022-10-31T22:51:31.982Z,16.32
2022-10-31T22:53:59.092Z,16.16
2022-10-31T22:56:28.717Z,16.32
2022-10-31T22:58:55.233Z,16.43
2022-10-31T23:01:24.232Z,16.34
2022-10-31T23:03:51.219Z,16.25
2022-10-31T23:06:20.428Z,16.10
2022-10-31T23:08:47.682Z,16.21
2022-10-31T23:11:18.564Z,16.20
2022-10-31T23:14:05.240Z,16.17
2022-10-31T23:16:32.465Z,16.30
2022-10-31T23:18:59.296Z,16.20
2022-10-31T23:21:43.764Z,16.13
2022-10-31T23:24:13.491Z,16.06
2022-10-31T23:26:58.657Z,16.15
2022-10-31T23:29:25.269Z,16.22
2022-10-31T23:31:54.533Z,16.20
2022-10-31T23:34:24.093Z,15.95
2022-10-31T23:36:50.697Z,15.98
2022-10-31T23:39:19.997Z,15.97
2022-10-31T23:41:49.425Z,15.85
2022-10-31T23:44:15.918Z,15.82
2022-10-31T23:46:42.562Z,15.87
2022-10-31T23:49:09.258Z,15.87
2022-10-31T23:51:35.907Z,15.85
2022-10-31T23:54:02.582Z,15.91
2022-10-31T23:56:29.147Z,15.87
2022-10-31T23:58:55.775Z,15.85
